createdAt,value
2018-05-18T00:00:19.188Z,73.40
2018-05-18T00:02:46.802Z,73.30
2018-05-18T00:05:13.643Z,73.20
2018-05-18T00:07:40.541Z,73.40
2018-05-18T00:10:08.254Z,73.80
2018-05-18T00:12:35.202Z,73.80
2018-05-18T00:15:02.025Z,74.00
2018-05-18T00:17:28.874Z,74.00
2018-05-18T00:19:55.735Z,73.80
2018-05-18T00:22:22.747Z,73.50
2018-05-18T00:24:49.748Z,73.60
2018-05-18T00:27:16.582Z,73.90
2018-05-18T00:29:43.405Z,74.20
2018-05-18T00:32:11.200Z,73.80
2018-05-18T00:34:38.046Z,73.70
2018-05-18T00:37:04.854Z,73.70
2018-05-18T00:39:31.909Z,73.50
2018-05-18T00:41:58.990Z,73.30
2018-05-18T00:44:25.838Z,73.40
2018-05-18T00:46:52.676Z,73.30
2018-05-18T00:49:19.722Z,73.40
2018-05-18T00:51:46.779Z,73.30
2018-05-18T00:54:13.693Z,73.20
2018-05-18T00:56:40.834Z,73.00
2018-05-18T00:59:07.714Z,73.00
2018-05-18T01:01:34.519Z,73.00
2018-05-18T01:04:02.160Z,73.10
2018-05-18T01:06:29.783Z,73.70
2018-05-18T01:08:56.643Z,72.90
2018-05-18T01:11:23.445Z,72.90
2018-05-18T01:13:50.266Z,72.70
2018-05-18T01:16:17.902Z,73.00
2018-05-18T01:18:44.737Z,72.80
2018-05-18T01:21:11.782Z,72.60
2018-05-18T01:23:38.619Z,72.50
2018-05-18T01:26:05.666Z,72.70
2018-05-18T01:28:32.615Z,72.70
2018-05-18T01:30:59.458Z,72.80
2018-05-18T01:33:26.416Z,72.80
2018-05-18T01:35:53.559Z,72.80
2018-05-18T01:38:20.506Z,72.70
2018-05-18T01:40:48.416Z,72.70
2018-05-18T01:43:15.987Z,72.60
2018-05-18T01:45:43.714Z,72.80
2018-05-18T01:48:10.525Z,72.80
2018-05-18T01:50:37.914Z,72.80
2018-05-18T01:53:04.961Z,72.90
2018-05-18T01:55:32.005Z,73.00
2018-05-18T01:57:58.869Z,73.00
2018-05-18T02:00:25.901Z,73.00
2018-05-18T02:02:52.957Z,73.00
2018-05-18T02:05:20.005Z,73.40
2018-05-18T02:07:46.739Z,73.60
2018-05-18T02:10:13.533Z,73.60
2018-05-18T02:12:41.124Z,73.50
2018-05-18T02:15:07.914Z,73.40
2018-05-18T02:17:34.631Z,73.50
2018-05-18T02:20:01.382Z,73.50
2018-05-18T02:22:28.329Z,73.50
2018-05-18T02:24:55.078Z,73.50
2018-05-18T02:27:22.011Z,73.50
2018-05-18T02:29:48.782Z,73.40
2018-05-18T02:32:17.244Z,73.40
2018-05-18T02:34:44.082Z,73.30
2018-05-18T02:37:11.032Z,73.40
2018-05-18T02:39:37.883Z,73.40
2018-05-18T02:42:04.637Z,73.40
2018-05-18T02:44:31.765Z,73.70
2018-05-18T02:46:58.509Z,73.90
2018-05-18T02:49:25.358Z,73.80
2018-05-18T02:51:52.198Z,74.00
2018-05-18T02:54:19.155Z,74.00
2018-05-18T02:56:45.985Z,73.90
2018-05-18T02:59:12.735Z,73.90
2018-05-18T03:01:40.644Z,73.90
2018-05-18T03:04:08.157Z,73.80
2018-05-18T03:06:35.113Z,73.70
2018-05-18T03:09:01.887Z,73.60
2018-05-18T03:11:28.802Z,73.60
2018-05-18T03:13:56.402Z,73.70
2018-05-18T03:16:24.027Z,74.10
2018-05-18T03:18:51.084Z,73.90
2018-05-18T03:21:17.815Z,74.60
2018-05-18T03:23:44.558Z,73.80
2018-05-18T03:26:11.433Z,73.50
2018-05-18T03:28:39.070Z,73.80
2018-05-18T03:31:06.025Z,73.80
2018-05-18T03:33:32.858Z,73.90
2018-05-18T03:35:59.602Z,73.90
2018-05-18T03:38:26.353Z,73.90
2018-05-18T03:40:53.098Z,73.80
2018-05-18T03:43:20.147Z,73.80
2018-05-18T03:45:47.017Z,73.80
2018-05-18T03:48:14.618Z,73.90
2018-05-18T03:50:41.492Z,73.80
2018-05-18T03:53:08.236Z,73.90
2018-05-18T03:55:35.193Z,73.90
2018-05-18T03:58:02.005Z,73.90
2018-05-18T04:00:28.981Z,73.90
2018-05-18T04:03:08.117Z,73.90
2018-05-18T04:05:47.349Z,74.10
2018-05-18T04:08:26.102Z,74.30
2018-05-18T04:10:52.873Z,74.30
2018-05-18T04:13:19.604Z,74.30
2018-05-18T04:15:47.212Z,74.20
2018-05-18T04:18:14.058Z,74.20
2018-05-18T04:20:41.117Z,74.20
2018-05-18T04:23:08.064Z,74.30
2018-05-18T04:25:35.115Z,74.30
2018-05-18T04:28:02.166Z,74.30
2018-05-18T04:30:29.289Z,74.40
2018-05-18T04:32:56.079Z,74.50
2018-05-18T04:35:23.415Z,74.60
2018-05-18T04:37:50.464Z,74.70
2018-05-18T04:40:17.302Z,74.80
2018-05-18T04:42:44.257Z,75.00
2018-05-18T04:45:11.306Z,75.20
2018-05-18T04:47:38.150Z,75.20
2018-05-18T04:50:05.203Z,75.40
2018-05-18T04:52:32.148Z,75.60
2018-05-18T04:54:58.882Z,75.60
2018-05-18T04:57:25.840Z,75.80
2018-05-18T04:59:52.889Z,75.80
2018-05-18T05:02:19.643Z,75.80
2018-05-18T05:04:46.467Z,76.00
2018-05-18T05:07:13.414Z,76.10
2018-05-18T05:09:40.372Z,76.00
2018-05-18T05:12:07.319Z,76.40
2018-05-18T05:14:51.307Z,76.80
2018-05-18T05:17:18.965Z,76.90
2018-05-18T05:19:45.773Z,76.90
2018-05-18T05:22:12.710Z,76.90
2018-05-18T05:24:39.463Z,77.50
2018-05-18T05:27:06.309Z,78.10
2018-05-18T05:29:33.090Z,78.60
2018-05-18T05:32:00.553Z,79.10
2018-05-18T05:34:28.106Z,79.10
2018-05-18T05:36:55.527Z,79.40
2018-05-18T05:39:22.297Z,79.30
2018-05-18T05:41:49.185Z,79.70
2018-05-18T05:44:16.771Z,80.40
2018-05-18T05:46:43.537Z,80.30
2018-05-18T05:49:10.337Z,80.70
2018-05-18T05:51:37.315Z,81.00
2018-05-18T05:54:04.154Z,81.10
2018-05-18T05:56:30.998Z,81.40
2018-05-18T05:58:57.955Z,81.10
2018-05-18T06:01:24.899Z,81.30
2018-05-18T06:03:51.658Z,81.30
2018-05-18T06:06:18.480Z,81.10
2018-05-18T06:08:45.255Z,80.90
2018-05-18T06:11:19.314Z,81.90
2018-05-18T06:13:46.189Z,81.90
2018-05-18T06:16:13.339Z,81.70
2018-05-18T06:18:40.387Z,81.90
2018-05-18T06:21:07.160Z,82.50
2018-05-18T06:23:34.785Z,82.90
2018-05-18T06:26:01.736Z,82.80
2018-05-18T06:28:28.502Z,83.00
2018-05-18T06:30:55.533Z,83.40
2018-05-18T06:33:22.456Z,84.50
2018-05-18T06:35:49.316Z,85.10
2018-05-18T06:38:16.272Z,85.80
2018-05-18T06:40:43.111Z,86.30
2018-05-18T06:43:09.893Z,87.20
2018-05-18T06:45:37.416Z,86.70
2018-05-18T06:48:04.199Z,86.50
2018-05-18T06:50:31.932Z,86.80
2018-05-18T06:52:58.766Z,86.70
2018-05-18T06:55:25.652Z,86.50
2018-05-18T06:57:53.283Z,87.60
2018-05-18T07:00:19.992Z,86.80
2018-05-18T07:02:46.838Z,86.70
2018-05-18T07:05:13.918Z,86.80
2018-05-18T07:07:40.832Z,86.70
2018-05-18T07:10:07.815Z,86.20
2018-05-18T07:12:34.650Z,85.80
2018-05-18T07:15:14.090Z,86.20
2018-05-18T07:17:40.940Z,86.20
2018-05-18T07:20:07.708Z,86.70
2018-05-18T07:22:34.643Z,86.30
2018-05-18T07:25:01.581Z,86.30
2018-05-18T07:27:28.392Z,86.40
2018-05-18T07:29:55.374Z,86.80
2018-05-18T07:32:22.319Z,86.40
2018-05-18T07:34:49.170Z,86.50
2018-05-18T07:37:16.822Z,86.30
2018-05-18T07:39:43.642Z,86.30
2018-05-18T07:42:10.610Z,85.80
2018-05-18T07:44:37.673Z,85.80
2018-05-18T07:47:04.421Z,86.00
2018-05-18T07:49:31.175Z,86.00
2018-05-18T07:51:58.035Z,86.10
2018-05-18T07:54:25.770Z,85.90
2018-05-18T07:56:52.714Z,85.80
2018-05-18T07:59:19.758Z,85.50
2018-05-18T08:01:46.523Z,85.30
2018-05-18T08:04:13.364Z,84.80
2018-05-18T08:06:40.438Z,84.70
2018-05-18T08:09:08.176Z,81.00
2018-05-18T08:11:35.005Z,81.00
2018-05-18T08:14:01.774Z,79.50
2018-05-18T08:16:28.521Z,80.20
2018-05-18T08:18:55.318Z,79.00
2018-05-18T08:21:22.132Z,79.30
2018-05-18T08:23:49.652Z,75.80
2018-05-18T08:26:16.490Z,75.60
2018-05-18T08:28:55.624Z,77.10
2018-05-18T08:31:22.459Z,77.10
2018-05-18T08:33:49.218Z,78.20
2018-05-18T08:36:16.898Z,76.40
2018-05-18T08:38:43.652Z,76.90
2018-05-18T08:41:11.276Z,75.50
2018-05-18T08:43:38.094Z,74.70
2018-05-18T08:46:04.942Z,75.60
2018-05-18T08:48:31.789Z,76.50
2018-05-18T08:50:58.763Z,75.80
2018-05-18T08:53:25.567Z,75.80
2018-05-18T08:55:52.348Z,74.10
2018-05-18T08:58:19.090Z,74.80
2018-05-18T09:00:46.040Z,75.30
2018-05-18T09:03:12.788Z,75.40
2018-05-18T09:05:39.596Z,75.40
2018-05-18T09:08:06.344Z,74.10
2018-05-18T09:10:33.318Z,73.90
2018-05-18T09:13:00.229Z,74.50
2018-05-18T09:15:38.823Z,74.00
2018-05-18T09:18:05.730Z,73.50
2018-05-18T09:20:33.281Z,71.70
2018-05-18T09:23:00.238Z,71.70
2018-05-18T09:25:27.487Z,70.70
2018-05-18T09:27:54.332Z,70.40
2018-05-18T09:30:21.278Z,71.20
2018-05-18T09:32:48.098Z,72.90
2018-05-18T09:35:14.834Z,71.60
2018-05-18T09:37:41.785Z,71.90
2018-05-18T09:40:08.767Z,71.50
2018-05-18T09:42:35.499Z,71.60
2018-05-18T09:45:02.421Z,72.30
2018-05-18T09:47:29.281Z,72.30
2018-05-18T09:49:56.146Z,73.30
2018-05-18T09:52:22.984Z,73.00
2018-05-18T09:54:50.006Z,72.90
2018-05-18T09:57:16.550Z,71.70
2018-05-18T09:59:43.417Z,71.20
2018-05-18T10:02:10.364Z,68.80
2018-05-18T10:04:37.419Z,68.60
2018-05-18T10:07:04.268Z,64.50
2018-05-18T10:09:31.077Z,63.40
2018-05-18T10:11:57.911Z,63.10
2018-05-18T10:14:34.468Z,62.10
2018-05-18T10:17:02.164Z,63.40
2018-05-18T10:19:29.239Z,63.40
2018-05-18T10:21:56.076Z,63.50
2018-05-18T10:24:23.033Z,63.60
2018-05-18T10:26:49.981Z,64.90
2018-05-18T10:29:17.134Z,64.30
2018-05-18T10:31:44.388Z,62.60
2018-05-18T10:34:11.113Z,62.00
2018-05-18T10:36:37.963Z,61.80
2018-05-18T10:39:05.023Z,61.80
2018-05-18T10:41:32.078Z,63.60
2018-05-18T10:43:58.814Z,63.30
2018-05-18T10:46:25.536Z,63.40
2018-05-18T10:48:52.611Z,60.50
2018-05-18T10:51:19.408Z,60.20
2018-05-18T10:53:46.501Z,59.80
2018-05-18T10:56:13.553Z,60.10
2018-05-18T10:58:40.432Z,60.40
2018-05-18T11:01:07.242Z,60.50
2018-05-18T11:03:34.071Z,59.60
2018-05-18T11:06:00.819Z,59.20
2018-05-18T11:08:27.668Z,59.30
2018-05-18T11:10:54.623Z,60.00
2018-05-18T11:13:21.399Z,59.10
2018-05-18T11:16:02.195Z,58.00
2018-05-18T11:18:28.938Z,57.90
2018-05-18T11:20:55.929Z,55.60
2018-05-18T11:23:22.737Z,55.80
2018-05-18T11:25:49.607Z,56.30
2018-05-18T11:28:16.561Z,55.30
2018-05-18T11:30:43.298Z,55.30
2018-05-18T11:33:10.353Z,55.80
2018-05-18T11:35:38.043Z,55.50
2018-05-18T11:38:05.071Z,55.50
2018-05-18T11:40:31.905Z,56.20
2018-05-18T11:42:58.964Z,55.30
2018-05-18T11:45:26.021Z,56.00
2018-05-18T11:47:52.951Z,57.70
2018-05-18T11:50:19.803Z,56.50
2018-05-18T11:52:46.561Z,54.80
2018-05-18T11:55:13.604Z,55.00
2018-05-18T11:57:40.556Z,55.90
2018-05-18T12:00:07.425Z,57.60
2018-05-18T12:02:35.044Z,55.60
2018-05-18T12:05:02.002Z,55.50
2018-05-18T12:07:29.048Z,55.90
2018-05-18T12:09:55.886Z,54.80
2018-05-18T12:12:22.732Z,55.70
2018-05-18T12:15:23.781Z,55.40
2018-05-18T12:17:51.961Z,56.10
2018-05-18T12:20:19.006Z,57.20
2018-05-18T12:22:46.567Z,60.50
2018-05-18T12:25:13.412Z,60.40
2018-05-18T12:27:40.256Z,60.90
2018-05-18T12:30:07.105Z,63.20
2018-05-18T12:32:33.945Z,60.50
2018-05-18T12:35:00.680Z,57.50
2018-05-18T12:37:27.508Z,57.70
2018-05-18T12:39:54.377Z,56.40
2018-05-18T12:42:21.162Z,56.40
2018-05-18T12:44:48.763Z,54.60
2018-05-18T12:47:15.629Z,54.50
2018-05-18T12:49:42.474Z,53.10
2018-05-18T12:52:09.429Z,53.30
2018-05-18T12:54:36.241Z,52.70
2018-05-18T12:57:03.220Z,51.80
2018-05-18T12:59:30.119Z,51.90
2018-05-18T13:01:56.910Z,52.40
2018-05-18T13:04:23.849Z,53.00
2018-05-18T13:06:50.694Z,52.90
2018-05-18T13:09:17.653Z,52.40
2018-05-18T13:11:44.486Z,53.70
2018-05-18T13:14:11.336Z,52.50
2018-05-18T13:16:38.177Z,52.20
2018-05-18T13:19:05.132Z,51.30
2018-05-18T13:21:31.930Z,51.00
2018-05-18T13:23:58.710Z,52.00
2018-05-18T13:26:25.665Z,52.60
2018-05-18T13:28:52.708Z,52.30
2018-05-18T13:31:19.515Z,53.60
2018-05-18T13:33:46.404Z,51.90
2018-05-18T13:36:13.189Z,50.70
2018-05-18T13:38:40.945Z,50.90
2018-05-18T13:41:08.671Z,50.70
2018-05-18T13:43:35.625Z,50.70
2018-05-18T13:46:02.565Z,50.20
2018-05-18T13:48:29.512Z,50.00
2018-05-18T13:50:56.470Z,51.20
2018-05-18T13:53:23.310Z,51.00
2018-05-18T13:55:50.397Z,50.60
2018-05-18T13:58:17.921Z,50.00
2018-05-18T14:00:44.762Z,50.00
2018-05-18T14:03:11.482Z,48.70
2018-05-18T14:05:38.335Z,48.60
2018-05-18T14:08:05.193Z,49.00
2018-05-18T14:10:32.035Z,48.20
2018-05-18T14:12:58.889Z,48.40
2018-05-18T14:15:59.746Z,50.40
2018-05-18T14:18:26.546Z,49.10
2018-05-18T14:20:54.461Z,50.30
2018-05-18T14:23:22.082Z,48.60
2018-05-18T14:25:48.909Z,48.50
2018-05-18T14:28:15.786Z,46.80
2018-05-18T14:30:42.747Z,47.10
2018-05-18T14:33:09.483Z,47.30
2018-05-18T14:35:36.437Z,47.20
2018-05-18T14:38:03.319Z,47.90
2018-05-18T14:40:30.116Z,48.50
2018-05-18T14:42:57.073Z,48.80
2018-05-18T14:45:24.124Z,48.90
2018-05-18T14:47:51.064Z,47.90
2018-05-18T14:50:17.832Z,49.00
2018-05-18T14:52:44.762Z,48.20
2018-05-18T14:55:11.700Z,48.00
2018-05-18T14:57:38.545Z,47.30
2018-05-18T15:00:05.467Z,47.70
2018-05-18T15:02:32.439Z,47.90
2018-05-18T15:04:59.196Z,47.40
2018-05-18T15:07:26.238Z,46.10
2018-05-18T15:09:53.077Z,46.10
2018-05-18T15:12:20.031Z,46.40
2018-05-18T15:15:11.259Z,45.40
2018-05-18T15:17:38.300Z,45.60
2018-05-18T15:20:05.234Z,46.00
2018-05-18T15:22:32.085Z,48.00
2018-05-18T15:24:59.114Z,47.30
2018-05-18T15:27:25.882Z,46.90
2018-05-18T15:29:52.647Z,46.00
2018-05-18T15:32:20.263Z,46.30
2018-05-18T15:34:47.007Z,45.70
2018-05-18T15:37:13.928Z,45.70
2018-05-18T15:39:40.747Z,45.70
2018-05-18T15:42:08.591Z,46.30
2018-05-18T15:44:35.337Z,46.80
2018-05-18T15:47:02.117Z,46.60
2018-05-18T15:49:29.686Z,46.20
2018-05-18T15:51:57.235Z,46.80
2018-05-18T15:54:24.746Z,46.90
2018-05-18T15:56:51.518Z,46.80
2018-05-18T15:59:21.718Z,46.70
2018-05-18T16:01:51.831Z,47.10
2018-05-18T16:04:22.096Z,46.90
2018-05-18T16:06:52.458Z,47.20
2018-05-18T16:09:22.536Z,47.40
2018-05-18T16:11:53.176Z,46.70
2018-05-18T16:14:41.546Z,45.70
2018-05-18T16:17:26.830Z,45.30
2018-05-18T16:20:01.209Z,45.60
2018-05-18T16:22:28.654Z,45.60
2018-05-18T16:24:55.460Z,48.30
2018-05-18T16:27:22.452Z,52.30
2018-05-18T16:29:49.291Z,51.40
2018-05-18T16:32:16.109Z,51.20
2018-05-18T16:34:42.861Z,50.50
2018-05-18T16:37:09.933Z,51.70
2018-05-18T16:39:36.664Z,53.20
2018-05-18T16:42:03.495Z,54.00
2018-05-18T16:44:30.362Z,53.20
2018-05-18T16:46:57.316Z,52.30
2018-05-18T16:49:24.068Z,52.50
2018-05-18T16:51:50.874Z,52.40
2018-05-18T16:54:17.850Z,51.70
2018-05-18T16:56:44.886Z,50.50
2018-05-18T16:59:11.640Z,50.00
2018-05-18T17:01:38.413Z,49.10
2018-05-18T17:04:05.951Z,49.40
2018-05-18T17:06:32.887Z,49.30
2018-05-18T17:08:59.941Z,49.80
2018-05-18T17:11:26.886Z,50.10
2018-05-18T17:13:53.768Z,50.60
2018-05-18T17:19:26.427Z,51.50
2018-05-18T17:21:53.213Z,51.10
2018-05-18T17:24:20.730Z,51.50
2018-05-18T17:26:47.503Z,51.40
2018-05-18T17:29:14.247Z,52.10
2018-05-18T17:31:41.933Z,52.60
2018-05-18T17:34:09.761Z,53.20
2018-05-18T17:36:36.597Z,53.20
2018-05-18T17:39:03.426Z,53.70
2018-05-18T17:41:31.078Z,54.00
2018-05-18T17:43:57.894Z,54.10
2018-05-18T17:46:25.818Z,55.70
2018-05-18T17:48:56.411Z,55.60
2018-05-18T17:51:24.456Z,54.70
2018-05-18T17:53:54.660Z,54.70
2018-05-18T17:56:21.852Z,54.40
2018-05-18T17:58:49.644Z,54.00
2018-05-18T18:01:17.112Z,54.00
2018-05-18T18:03:45.153Z,53.60
2018-05-18T18:06:12.365Z,53.60
2018-05-18T18:08:39.332Z,53.50
2018-05-18T18:11:06.323Z,54.10
2018-05-18T18:13:33.550Z,53.60
2018-05-18T18:16:29.982Z,53.70
2018-05-18T18:18:57.828Z,54.20
2018-05-18T18:21:27.840Z,54.10
2018-05-18T18:23:57.539Z,54.20
2018-05-18T18:26:26.655Z,54.30
2018-05-18T18:28:54.824Z,54.50
2018-05-18T18:31:21.603Z,54.90
2018-05-18T18:33:49.515Z,54.80
2018-05-18T18:36:16.625Z,55.00
2018-05-18T18:38:46.125Z,55.40
2018-05-18T18:41:16.922Z,55.80
2018-05-18T18:43:44.589Z,55.80
2018-05-18T18:46:12.031Z,56.40
2018-05-18T18:48:38.994Z,56.50
2018-05-18T18:51:05.841Z,56.60
2018-05-18T18:53:32.806Z,56.60
2018-05-18T18:55:59.558Z,56.40
2018-05-18T18:58:26.478Z,55.90
2018-05-18T19:00:53.521Z,55.50
2018-05-18T19:03:20.382Z,55.40
2018-05-18T19:05:47.219Z,55.40
2018-05-18T19:08:14.773Z,54.90
2018-05-18T19:10:41.736Z,54.80
2018-05-18T19:13:08.493Z,55.30
2018-05-18T19:18:39.853Z,56.10
2018-05-18T19:21:06.900Z,56.50
2018-05-18T19:23:33.696Z,56.50
2018-05-18T19:26:01.203Z,56.90
2018-05-18T19:28:28.151Z,56.90
2018-05-18T19:30:54.989Z,57.10
2018-05-18T19:33:21.747Z,57.20
2018-05-18T19:35:48.653Z,57.10
2018-05-18T19:38:15.446Z,57.50
2018-05-18T19:40:43.092Z,57.60
2018-05-18T19:43:10.453Z,57.60
2018-05-18T19:45:38.116Z,57.80
2018-05-18T19:48:05.126Z,57.80
2018-05-18T19:50:31.887Z,57.40
2018-05-18T19:52:58.922Z,57.60
2018-05-18T19:55:26.382Z,57.50
2018-05-18T19:57:53.296Z,57.70
2018-05-18T20:00:21.323Z,58.00
2018-05-18T20:02:48.171Z,57.80
2018-05-18T20:05:15.634Z,58.00
2018-05-18T20:10:43.939Z,59.00
2018-05-18T20:13:10.773Z,59.20
2018-05-18T20:16:09.730Z,59.50
2018-05-18T20:18:36.620Z,59.70
2018-05-18T20:21:03.895Z,59.00
2018-05-18T20:23:30.821Z,59.40
2018-05-18T20:26:24.875Z,59.50
2018-05-18T20:29:12.174Z,59.30
2018-05-18T20:31:39.873Z,58.20
2018-05-18T20:34:06.768Z,58.20
2018-05-18T20:36:33.585Z,58.20
2018-05-18T20:39:00.278Z,58.40
2018-05-18T20:41:27.971Z,58.70
2018-05-18T20:43:54.833Z,58.60
2018-05-18T20:46:21.695Z,59.00
2018-05-18T20:48:48.636Z,59.30
2018-05-18T20:51:15.593Z,59.70
2018-05-18T20:53:42.388Z,59.80
2018-05-18T20:56:09.342Z,59.80
2018-05-18T20:58:37.013Z,60.40
2018-05-18T21:01:04.487Z,60.60
2018-05-18T21:03:31.338Z,60.60
2018-05-18T21:05:58.142Z,60.70
2018-05-18T21:08:25.136Z,60.90
2018-05-18T21:10:53.391Z,61.00
2018-05-18T21:13:20.229Z,61.30
2018-05-18T21:18:52.518Z,61.50
2018-05-18T21:21:19.469Z,61.30
2018-05-18T21:23:48.178Z,61.40
2018-05-18T21:26:15.020Z,61.30
2018-05-18T21:28:41.981Z,61.30
2018-05-18T21:31:09.032Z,61.20
2018-05-18T21:33:35.870Z,61.20
2018-05-18T21:36:02.820Z,61.20
2018-05-18T21:38:29.672Z,61.10
2018-05-18T21:40:56.507Z,61.00
2018-05-18T21:43:23.324Z,60.60
2018-05-18T21:45:50.410Z,60.60
2018-05-18T21:48:17.365Z,60.80
2018-05-18T21:50:44.126Z,60.70
2018-05-18T21:53:11.762Z,60.70
2018-05-18T21:55:38.709Z,60.70
2018-05-18T21:58:05.652Z,60.60
2018-05-18T22:00:32.435Z,60.50
2018-05-18T22:03:00.055Z,60.30
2018-05-18T22:05:26.961Z,60.30
2018-05-18T22:07:53.959Z,60.30
2018-05-18T22:10:21.006Z,60.00
2018-05-18T22:12:47.956Z,60.00
2018-05-18T22:15:14.891Z,60.00
2018-05-18T22:17:41.738Z,59.90
2018-05-18T22:20:08.583Z,60.10
2018-05-18T22:22:35.325Z,60.20
2018-05-18T22:25:02.280Z,60.30
2018-05-18T22:27:28.977Z,60.30
2018-05-18T22:29:55.632Z,60.30
2018-05-18T22:32:22.398Z,60.10
2018-05-18T22:34:49.140Z,60.40
2018-05-18T22:37:15.821Z,60.30
2018-05-18T22:39:43.449Z,61.00
2018-05-18T22:42:10.193Z,60.30
2018-05-18T22:44:37.010Z,60.40
2018-05-18T22:47:03.854Z,60.40
2018-05-18T22:49:30.595Z,60.50
2018-05-18T22:51:57.255Z,60.30
2018-05-18T22:54:24.001Z,60.30
2018-05-18T22:56:50.768Z,60.50
2018-05-18T22:59:17.596Z,60.60
2018-05-18T23:01:44.749Z,60.60
2018-05-18T23:04:11.581Z,60.80
2018-05-18T23:06:38.413Z,60.80
2018-05-18T23:09:05.095Z,60.80
2018-05-18T23:11:31.818Z,61.00
2018-05-18T23:13:58.493Z,61.10
2018-05-18T23:16:25.508Z,61.00
2018-05-18T23:18:52.245Z,61.30
2018-05-18T23:21:18.909Z,61.40
2018-05-18T23:23:45.632Z,61.70
2018-05-18T23:26:12.270Z,61.90
2018-05-18T23:28:39.220Z,62.10
2018-05-18T23:31:06.158Z,62.20
2018-05-18T23:33:33.117Z,62.20
2018-05-18T23:35:59.833Z,62.30
2018-05-18T23:38:27.262Z,62.90
2018-05-18T23:40:54.842Z,63.00
2018-05-18T23:43:22.579Z,62.90
2018-05-18T23:45:50.073Z,63.80
2018-05-18T23:48:16.842Z,63.20
2018-05-18T23:50:43.688Z,63.40
2018-05-18T23:53:10.638Z,63.60
2018-05-18T23:55:37.300Z,64.50
2018-05-18T23:58:04.226Z,63.70
